sensor_id;sensor_type;location;lat;lon;timestamp;pressure;altitude;pressure_sealevel;temperature;humidity
64821;BME280;51256;55.654;37.264;2022-09-09T00:03:54;99877.31;;;5.62;74.24
64821;BME280;51256;55.654;37.264;2022-09-09T00:06:31;99881.88;;;5.73;73.75
64821;BME280;51256;55.654;37.264;2022-09-09T00:09:16;99890.63;;;5.73;73.90
64821;BME280;51256;55.654;37.264;2022-09-09T00:11:54;99890.94;;;5.68;74.32
64821;BME280;51256;55.654;37.264;2022-09-09T00:14:46;99893.47;;;5.70;74.03
64821;BME280;51256;55.654;37.264;2022-09-09T00:17:18;99902.03;;;5.74;73.74
64821;BME280;51256;55.654;37.264;2022-09-09T00:19:53;99899.16;;;5.77;73.69
64821;BME280;51256;55.654;37.264;2022-09-09T00:22:23;99900.75;;;5.79;73.78
64821;BME280;51256;55.654;37.264;2022-09-09T00:24:52;99893.38;;;5.84;73.81
64821;BME280;51256;55.654;37.264;2022-09-09T00:27:38;99894.75;;;5.77;73.49
64821;BME280;51256;55.654;37.264;2022-09-09T00:32:36;99893.78;;;5.65;74.06
64821;BME280;51256;55.654;37.264;2022-09-09T00:35:27;99897.56;;;5.61;73.75
64821;BME280;51256;55.654;37.264;2022-09-09T00:37:57;99896.56;;;5.49;74.70
64821;BME280;51256;55.654;37.264;2022-09-09T00:40:34;99908.78;;;5.50;74.53
64821;BME280;51256;55.654;37.264;2022-09-09T00:46:05;99910.09;;;5.58;74.68
64821;BME280;51256;55.654;37.264;2022-09-09T00:51:32;99906.91;;;5.52;74.37
64821;BME280;51256;55.654;37.264;2022-09-09T00:54:21;99916.13;;;5.60;74.55
64821;BME280;51256;55.654;37.264;2022-09-09T01:02:27;99916.44;;;5.68;74.41
64821;BME280;51256;55.654;37.264;2022-09-09T01:05:02;99915.59;;;5.67;74.47
64821;BME280;51256;55.654;37.264;2022-09-09T01:07:30;99922.88;;;5.77;74.34
64821;BME280;51256;55.654;37.264;2022-09-09T01:09:59;99926.81;;;5.84;74.24
64821;BME280;51256;55.654;37.264;2022-09-09T01:15:12;99924.28;;;5.82;74.29
64821;BME280;51256;55.654;37.264;2022-09-09T01:17:53;99931.97;;;5.85;74.48
64821;BME280;51256;55.654;37.264;2022-09-09T01:20:27;99942.19;;;5.77;74.40
64821;BME280;51256;55.654;37.264;2022-09-09T01:23:34;99932.88;;;5.72;74.15
64821;BME280;51256;55.654;37.264;2022-09-09T01:28:29;99941.59;;;5.59;74.59
64821;BME280;51256;55.654;37.264;2022-09-09T01:30:56;99943.50;;;5.57;75.11
64821;BME280;51256;55.654;37.264;2022-09-09T01:33:22;99947.06;;;5.56;74.73
64821;BME280;51256;55.654;37.264;2022-09-09T01:38:20;99953.00;;;5.60;75.18
64821;BME280;51256;55.654;37.264;2022-09-09T01:40:46;99952.66;;;5.64;74.86
64821;BME280;51256;55.654;37.264;2022-09-09T01:43:12;99942.53;;;5.58;74.42
64821;BME280;51256;55.654;37.264;2022-09-09T01:45:39;99953.41;;;5.66;75.07
64821;BME280;51256;55.654;37.264;2022-09-09T01:48:06;99954.91;;;5.71;74.36
64821;BME280;51256;55.654;37.264;2022-09-09T01:50:32;99946.47;;;5.65;74.74
64821;BME280;51256;55.654;37.264;2022-09-09T01:52:58;99960.56;;;5.64;74.89
64821;BME280;51256;55.654;37.264;2022-09-09T01:55:30;99952.44;;;5.55;74.46
64821;BME280;51256;55.654;37.264;2022-09-09T02:00:41;99946.00;;;5.46;75.11
64821;BME280;51256;55.654;37.264;2022-09-09T02:03:23;99957.41;;;5.59;75.16
64821;BME280;51256;55.654;37.264;2022-09-09T02:05:58;99964.34;;;5.60;74.70
64821;BME280;51256;55.654;37.264;2022-09-09T02:08:46;99963.22;;;5.64;74.96
64821;BME280;51256;55.654;37.264;2022-09-09T02:13:40;99962.78;;;5.58;74.94
64821;BME280;51256;55.654;37.264;2022-09-09T02:16:36;99968.88;;;5.58;74.75
64821;BME280;51256;55.654;37.264;2022-09-09T02:19:25;99968.97;;;5.57;75.16
64821;BME280;51256;55.654;37.264;2022-09-09T02:21:55;99975.50;;;5.51;75.06
64821;BME280;51256;55.654;37.264;2022-09-09T02:24:21;99975.69;;;5.48;75.41
64821;BME280;51256;55.654;37.264;2022-09-09T02:26:50;99967.53;;;5.38;75.35
64821;BME280;51256;55.654;37.264;2022-09-09T02:29:23;99980.03;;;5.34;75.53
64821;BME280;51256;55.654;37.264;2022-09-09T02:31:51;99987.31;;;5.31;75.66
64821;BME280;51256;55.654;37.264;2022-09-09T02:34:20;99973.03;;;5.20;75.70
64821;BME280;51256;55.654;37.264;2022-09-09T02:36:48;99984.59;;;5.18;75.78
64821;BME280;51256;55.654;37.264;2022-09-09T02:39:14;99987.97;;;5.20;75.89
64821;BME280;51256;55.654;37.264;2022-09-09T02:41:41;99987.97;;;5.20;75.76
64821;BME280;51256;55.654;37.264;2022-09-09T02:44:12;99982.16;;;5.15;76.03
64821;BME280;51256;55.654;37.264;2022-09-09T02:49:56;100001.53;;;5.14;75.95
64821;BME280;51256;55.654;37.264;2022-09-09T02:55:05;99996.38;;;4.98;76.11
64821;BME280;51256;55.654;37.264;2022-09-09T02:57:33;100002.88;;;4.92;76.39
64821;BME280;51256;55.654;37.264;2022-09-09T02:59:59;100002.31;;;4.87;76.75
64821;BME280;51256;55.654;37.264;2022-09-09T03:02:25;100005.94;;;4.84;76.72
64821;BME280;51256;55.654;37.264;2022-09-09T03:04:51;100004.84;;;4.89;76.90
64821;BME280;51256;55.654;37.264;2022-09-09T03:07:20;100009.41;;;4.99;76.74
64821;BME280;51256;55.654;37.264;2022-09-09T03:09:46;100004.75;;;5.05;76.33
64821;BME280;51256;55.654;37.264;2022-09-09T03:12:11;100009.81;;;5.08;76.16
64821;BME280;51256;55.654;37.264;2022-09-09T03:14:38;100007.84;;;5.11;76.55
64821;BME280;51256;55.654;37.264;2022-09-09T03:17:04;100016.94;;;5.06;76.17
64821;BME280;51256;55.654;37.264;2022-09-09T03:19:30;100018.19;;;5.00;76.09
64821;BME280;51256;55.654;37.264;2022-09-09T03:21:59;100014.13;;;4.94;76.41
64821;BME280;51256;55.654;37.264;2022-09-09T03:24:25;100013.66;;;4.87;76.78
64821;BME280;51256;55.654;37.264;2022-09-09T03:26:51;100021.56;;;4.87;76.28
64821;BME280;51256;55.654;37.264;2022-09-09T03:29:17;100014.44;;;4.90;76.19
64821;BME280;51256;55.654;37.264;2022-09-09T03:31:44;100022.31;;;4.90;76.53
64821;BME280;51256;55.654;37.264;2022-09-09T03:34:10;100019.97;;;4.85;76.56
64821;BME280;51256;55.654;37.264;2022-09-09T03:36:36;100020.72;;;4.87;76.80
64821;BME280;51256;55.654;37.264;2022-09-09T03:39:03;100025.22;;;4.85;76.91
64821;BME280;51256;55.654;37.264;2022-09-09T03:41:29;100031.53;;;4.82;76.69
64821;BME280;51256;55.654;37.264;2022-09-09T03:43:55;100031.44;;;4.84;76.57
64821;BME280;51256;55.654;37.264;2022-09-09T03:46:22;100041.84;;;4.85;76.75
64821;BME280;51256;55.654;37.264;2022-09-09T03:48:48;100035.09;;;4.81;76.66
64821;BME280;51256;55.654;37.264;2022-09-09T03:51:13;100037.63;;;4.83;76.93
64821;BME280;51256;55.654;37.264;2022-09-09T03:53:39;100040.44;;;4.80;76.77
64821;BME280;51256;55.654;37.264;2022-09-09T03:56:06;100040.25;;;4.83;76.69
64821;BME280;51256;55.654;37.264;2022-09-09T03:58:33;100045.41;;;4.84;76.78
64821;BME280;51256;55.654;37.264;2022-09-09T04:01:03;100049.66;;;4.87;76.83
64821;BME280;51256;55.654;37.264;2022-09-09T04:03:30;100049.47;;;4.90;76.54
64821;BME280;51256;55.654;37.264;2022-09-09T04:05:57;100054.53;;;4.93;76.72
64821;BME280;51256;55.654;37.264;2022-09-09T04:08:23;100050.13;;;4.94;76.58
64821;BME280;51256;55.654;37.264;2022-09-09T04:10:52;100059.63;;;4.96;76.45
64821;BME280;51256;55.654;37.264;2022-09-09T04:13:19;100060.47;;;4.97;76.49
64821;BME280;51256;55.654;37.264;2022-09-09T04:15:55;100058.31;;;5.03;76.25
64821;BME280;51256;55.654;37.264;2022-09-09T04:18:22;100059.06;;;5.06;76.36
64821;BME280;51256;55.654;37.264;2022-09-09T04:20:50;100043.94;;;4.95;76.67
64821;BME280;51256;55.654;37.264;2022-09-09T04:23:17;100066.69;;;5.10;76.66
64821;BME280;51256;55.654;37.264;2022-09-09T04:25:49;100055.59;;;5.05;76.56
64821;BME280;51256;55.654;37.264;2022-09-09T04:28:15;100061.13;;;5.15;76.42
64821;BME280;51256;55.654;37.264;2022-09-09T04:30:42;100064.50;;;5.17;75.99
64821;BME280;51256;55.654;37.264;2022-09-09T04:33:08;100067.72;;;5.22;76.04
64821;BME280;51256;55.654;37.264;2022-09-09T04:35:35;100070.97;;;5.26;76.35
64821;BME280;51256;55.654;37.264;2022-09-09T04:38:01;100061.41;;;5.25;75.93
64821;BME280;51256;55.654;37.264;2022-09-09T04:40:28;100064.41;;;5.33;75.93
64821;BME280;51256;55.654;37.264;2022-09-09T04:42:55;100066.00;;;5.35;75.65
64821;BME280;51256;55.654;37.264;2022-09-09T04:45:20;100070.03;;;5.41;76.02
64821;BME280;51256;55.654;37.264;2022-09-09T04:47:46;100071.53;;;5.45;76.13
64821;BME280;51256;55.654;37.264;2022-09-09T04:50:11;100061.00;;;5.45;75.68
64821;BME280;51256;55.654;37.264;2022-09-09T04:52:37;100075.38;;;5.54;75.20
64821;BME280;51256;55.654;37.264;2022-09-09T04:55:03;100077.53;;;5.62;75.75
64821;BME280;51256;55.654;37.264;2022-09-09T04:57:29;100072.06;;;5.65;75.06
64821;BME280;51256;55.654;37.264;2022-09-09T04:59:57;100077.25;;;5.66;75.29
64821;BME280;51256;55.654;37.264;2022-09-09T05:02:23;100075.91;;;5.74;74.88
64821;BME280;51256;55.654;37.264;2022-09-09T05:04:48;100075.81;;;5.75;74.94
64821;BME280;51256;55.654;37.264;2022-09-09T05:07:15;100089.13;;;5.87;74.87
64821;BME280;51256;55.654;37.264;2022-09-09T05:09:40;100089.13;;;5.87;74.80
64821;BME280;51256;55.654;37.264;2022-09-09T05:12:06;100080.06;;;5.91;74.00
64821;BME280;51256;55.654;37.264;2022-09-09T05:14:31;100068.06;;;5.87;74.03
64821;BME280;51256;55.654;37.264;2022-09-09T05:16:57;100082.28;;;5.98;74.28
64821;BME280;51256;55.654;37.264;2022-09-09T05:19:23;100091.16;;;6.10;73.80
64821;BME280;51256;55.654;37.264;2022-09-09T05:21:48;100092.25;;;6.21;74.15
64821;BME280;51256;55.654;37.264;2022-09-09T05:24:15;100102.09;;;6.31;73.64
64821;BME280;51256;55.654;37.264;2022-09-09T05:26:41;100093.25;;;6.32;73.74
64821;BME280;51256;55.654;37.264;2022-09-09T05:29:06;100096.31;;;6.39;73.39
64821;BME280;51256;55.654;37.264;2022-09-09T05:31:33;100099.59;;;6.43;72.69
64821;BME280;51256;55.654;37.264;2022-09-09T05:33:59;100091.28;;;6.49;72.53
64821;BME280;51256;55.654;37.264;2022-09-09T05:36:24;100097.72;;;6.58;72.29
64821;BME280;51256;55.654;37.264;2022-09-09T05:38:50;100090.66;;;6.58;71.73
64821;BME280;51256;55.654;37.264;2022-09-09T05:41:16;100096.16;;;6.68;71.87
64821;BME280;51256;55.654;37.264;2022-09-09T05:43:43;100095.63;;;6.76;71.99
64821;BME280;51256;55.654;37.264;2022-09-09T05:46:20;100091.63;;;6.83;71.73
64821;BME280;51256;55.654;37.264;2022-09-09T05:48:47;100095.44;;;6.92;71.35
64821;BME280;51256;55.654;37.264;2022-09-09T05:51:15;100096.81;;;6.97;71.16
64821;BME280;51256;55.654;37.264;2022-09-09T05:53:42;100102.31;;;7.07;70.61
64821;BME280;51256;55.654;37.264;2022-09-09T05:56:16;100093.75;;;7.04;70.13
64821;BME280;51256;55.654;37.264;2022-09-09T05:58:45;100102.31;;;7.07;69.01
64821;BME280;51256;55.654;37.264;2022-09-09T06:01:18;100104.50;;;7.13;69.03
64821;BME280;51256;55.654;37.264;2022-09-09T06:03:45;100098.19;;;7.16;69.46
64821;BME280;51256;55.654;37.264;2022-09-09T06:06:15;100113.06;;;7.30;69.26
64821;BME280;51256;55.654;37.264;2022-09-09T06:08:42;100116.25;;;7.35;68.75
64821;BME280;51256;55.654;37.264;2022-09-09T06:11:28;100114.94;;;7.41;68.64
64821;BME280;51256;55.654;37.264;2022-09-09T06:13:56;100118.22;;;7.44;68.25
64821;BME280;51256;55.654;37.264;2022-09-09T06:16:26;100130.06;;;7.52;67.80
64821;BME280;51256;55.654;37.264;2022-09-09T06:18:55;100112.50;;;7.51;67.44
64821;BME280;51256;55.654;37.264;2022-09-09T06:21:23;100129.63;;;7.58;67.67
64821;BME280;51256;55.654;37.264;2022-09-09T06:23:50;100129.81;;;7.68;66.61
64821;BME280;51256;55.654;37.264;2022-09-09T06:26:32;100117.44;;;7.68;65.16
64821;BME280;51256;55.654;37.264;2022-09-09T06:28:59;100129.38;;;7.74;65.77
64821;BME280;51256;55.654;37.264;2022-09-09T06:31:29;100129.78;;;7.81;65.83
64821;BME280;51256;55.654;37.264;2022-09-09T06:36:43;100120.66;;;7.98;65.51
64821;BME280;51256;55.654;37.264;2022-09-09T06:39:12;100096.44;;;7.91;65.15
64821;BME280;51256;55.654;37.264;2022-09-09T06:42:03;100076.78;;;7.95;64.56
64821;BME280;51256;55.654;37.264;2022-09-09T06:44:37;100110.50;;;8.16;63.79
64821;BME280;51256;55.654;37.264;2022-09-09T06:47:06;100125.38;;;8.30;62.52
64821;BME280;51256;55.654;37.264;2022-09-09T06:49:34;100141.72;;;8.48;62.03
64821;BME280;51256;55.654;37.264;2022-09-09T06:52:00;100130.22;;;8.36;61.80
64821;BME280;51256;55.654;37.264;2022-09-09T06:54:25;100101.84;;;8.38;61.60
64821;BME280;51256;55.654;37.264;2022-09-09T06:56:51;100145.88;;;8.63;61.27
64821;BME280;51256;55.654;37.264;2022-09-09T06:59:16;100141.81;;;8.70;60.88
64821;BME280;51256;55.654;37.264;2022-09-09T07:01:43;100144.72;;;8.90;60.65
64821;BME280;51256;55.654;37.264;2022-09-09T07:04:19;100146.09;;;8.96;60.19
64821;BME280;51256;55.654;37.264;2022-09-09T07:06:45;100157.31;;;9.11;59.42
64821;BME280;51256;55.654;37.264;2022-09-09T07:09:21;100151.91;;;9.23;59.01
64821;BME280;51256;55.654;37.264;2022-09-09T07:11:49;100160.47;;;9.38;58.56
64821;BME280;51256;55.654;37.264;2022-09-09T07:14:16;100154.09;;;9.52;58.33
64821;BME280;51256;55.654;37.264;2022-09-09T07:16:43;100148.78;;;9.75;57.56
64821;BME280;51256;55.654;37.264;2022-09-09T07:19:09;100155.63;;;10.00;57.44
64821;BME280;51256;55.654;37.264;2022-09-09T07:21:35;100153.13;;;10.31;55.88
64821;BME280;51256;55.654;37.264;2022-09-09T07:24:10;100158.88;;;10.48;55.14
64821;BME280;51256;55.654;37.264;2022-09-09T07:26:36;100162.53;;;10.47;54.26
64821;BME280;51256;55.654;37.264;2022-09-09T07:29:03;100168.22;;;10.42;54.72
64821;BME280;51256;55.654;37.264;2022-09-09T07:31:34;100174.13;;;10.46;54.78
64821;BME280;51256;55.654;37.264;2022-09-09T07:34:02;100171.69;;;10.43;54.75
64821;BME280;51256;55.654;37.264;2022-09-09T07:36:33;100156.63;;;10.43;54.87
64821;BME280;51256;55.654;37.264;2022-09-09T07:39:02;100161.63;;;10.58;54.16
64821;BME280;51256;55.654;37.264;2022-09-09T07:41:37;100161.34;;;10.72;54.29
64821;BME280;51256;55.654;37.264;2022-09-09T07:44:15;100168.00;;;10.87;53.56
64821;BME280;51256;55.654;37.264;2022-09-09T07:46:41;100167.31;;;10.85;53.20
64821;BME280;51256;55.654;37.264;2022-09-09T07:49:07;100183.88;;;10.99;53.33
64821;BME280;51256;55.654;37.264;2022-09-09T07:51:36;100173.19;;;11.10;52.81
64821;BME280;51256;55.654;37.264;2022-09-09T07:54:05;100184.69;;;11.32;52.20
64821;BME280;51256;55.654;37.264;2022-09-09T07:56:31;100182.53;;;11.26;51.59
64821;BME280;51256;55.654;37.264;2022-09-09T07:58:57;100199.19;;;11.28;51.82
64821;BME280;51256;55.654;37.264;2022-09-09T08:01:32;100189.69;;;11.56;51.73
64821;BME280;51256;55.654;37.264;2022-09-09T08:04:15;100191.38;;;11.88;50.97
64821;BME280;51256;55.654;37.264;2022-09-09T08:06:55;100197.59;;;11.98;51.24
64821;BME280;51256;55.654;37.264;2022-09-09T08:09:23;100200.28;;;12.08;51.18
64821;BME280;51256;55.654;37.264;2022-09-09T08:11:55;100185.88;;;12.11;50.74
64821;BME280;51256;55.654;37.264;2022-09-09T08:14:25;100207.25;;;11.99;49.72
64821;BME280;51256;55.654;37.264;2022-09-09T08:16:51;100205.84;;;11.74;49.99
64821;BME280;51256;55.654;37.264;2022-09-09T08:19:18;100200.84;;;11.50;49.46
64821;BME280;51256;55.654;37.264;2022-09-09T08:21:44;100198.28;;;11.39;49.77
64821;BME280;51256;55.654;37.264;2022-09-09T08:24:11;100199.47;;;11.25;50.67
64821;BME280;51256;55.654;37.264;2022-09-09T08:26:40;100197.47;;;11.17;50.15
64821;BME280;51256;55.654;37.264;2022-09-09T08:29:07;100205.44;;;11.17;50.89
64821;BME280;51256;55.654;37.264;2022-09-09T08:31:44;100198.03;;;11.21;49.75
64821;BME280;51256;55.654;37.264;2022-09-09T08:34:11;100212.00;;;11.44;49.19
64821;BME280;51256;55.654;37.264;2022-09-09T08:36:48;100188.03;;;11.65;49.06
64821;BME280;51256;55.654;37.264;2022-09-09T08:39:16;100200.16;;;12.10;48.73
64821;BME280;51256;55.654;37.264;2022-09-09T08:50:28;100195.00;;;12.38;48.64
64821;BME280;51256;55.654;37.264;2022-09-09T08:53:05;100206.06;;;12.23;48.42
64821;BME280;51256;55.654;37.264;2022-09-09T08:55:45;100197.28;;;11.61;48.96
64821;BME280;51256;55.654;37.264;2022-09-09T09:11:47;100213.78;;;11.86;49.46
64821;BME280;51256;55.654;37.264;2022-09-09T09:14:25;100215.34;;;12.39;48.20
64821;BME280;51256;55.654;37.264;2022-09-09T09:16:58;100212.59;;;12.79;47.57
64821;BME280;51256;55.654;37.264;2022-09-09T09:19:26;100226.03;;;12.78;46.93
64821;BME280;51256;55.654;37.264;2022-09-09T09:22:06;100212.03;;;12.76;47.54
64821;BME280;51256;55.654;37.264;2022-09-09T09:29:58;100213.38;;;12.51;47.67
64821;BME280;51256;55.654;37.264;2022-09-09T09:32:26;100211.44;;;12.53;47.47
64821;BME280;51256;55.654;37.264;2022-09-09T09:34:56;100204.84;;;12.47;47.08
64821;BME280;51256;55.654;37.264;2022-09-09T09:37:31;100209.63;;;12.53;47.50
64821;BME280;51256;55.654;37.264;2022-09-09T09:40:14;100213.00;;;12.75;46.70
64821;BME280;51256;55.654;37.264;2022-09-09T09:42:55;100198.66;;;12.86;46.16
64821;BME280;51256;55.654;37.264;2022-09-09T09:48:05;100204.97;;;12.94;45.96
64821;BME280;51256;55.654;37.264;2022-09-09T09:50:32;100197.69;;;12.77;46.09
64821;BME280;51256;55.654;37.264;2022-09-09T09:53:06;100206.84;;;12.64;45.11
64821;BME280;51256;55.654;37.264;2022-09-09T09:55:53;100202.16;;;12.37;45.45
64821;BME280;51256;55.654;37.264;2022-09-09T09:58:19;100200.19;;;12.20;46.99
64821;BME280;51256;55.654;37.264;2022-09-09T10:00:52;100210.00;;;12.29;46.50
64821;BME280;51256;55.654;37.264;2022-09-09T10:03:30;100214.66;;;12.56;46.48
64821;BME280;51256;55.654;37.264;2022-09-09T10:05:56;100217.31;;;12.95;45.68
64821;BME280;51256;55.654;37.264;2022-09-09T10:08:26;100207.75;;;13.32;44.68
64821;BME280;51256;55.654;37.264;2022-09-09T10:13:54;100220.34;;;13.59;44.93
64821;BME280;51256;55.654;37.264;2022-09-09T10:16:51;100219.28;;;13.42;45.06
64821;BME280;51256;55.654;37.264;2022-09-09T10:19:32;100220.28;;;13.02;45.25
64821;BME280;51256;55.654;37.264;2022-09-09T10:22:27;100217.75;;;12.61;46.00
64821;BME280;51256;55.654;37.264;2022-09-09T10:30:34;100217.06;;;12.79;45.07
64821;BME280;51256;55.654;37.264;2022-09-09T10:34:01;100212.69;;;13.17;44.88
64821;BME280;51256;55.654;37.264;2022-09-09T10:36:12;100222.34;;;13.48;44.68
64821;BME280;51256;55.654;37.264;2022-09-09T10:47:57;100220.41;;;12.61;45.01
64821;BME280;51256;55.654;37.264;2022-09-09T10:50:55;100222.22;;;12.51;45.42
64821;BME280;51256;55.654;37.264;2022-09-09T10:56:28;100227.28;;;13.23;44.44
64821;BME280;51256;55.654;37.264;2022-09-09T11:01:28;100222.88;;;13.61;43.24
64821;BME280;51256;55.654;37.264;2022-09-09T11:04:05;100209.75;;;13.40;42.60
64821;BME280;51256;55.654;37.264;2022-09-09T11:06:39;100207.63;;;13.34;43.19
64821;BME280;51256;55.654;37.264;2022-09-09T11:09:14;100222.91;;;13.22;43.58
64821;BME280;51256;55.654;37.264;2022-09-09T11:11:53;100226.88;;;12.98;44.17
64821;BME280;51256;55.654;37.264;2022-09-09T11:14:42;100217.75;;;12.71;44.75
64821;BME280;51256;55.654;37.264;2022-09-09T11:18:13;100225.19;;;12.58;45.18
64821;BME280;51256;55.654;37.264;2022-09-09T11:20:18;100211.72;;;12.40;45.16
64821;BME280;51256;55.654;37.264;2022-09-09T11:38:51;100224.03;;;13.49;42.97
64821;BME280;51256;55.654;37.264;2022-09-09T11:41:19;100217.56;;;13.51;43.11
64821;BME280;51256;55.654;37.264;2022-09-09T11:43:51;100219.81;;;13.56;43.35
64821;BME280;51256;55.654;37.264;2022-09-09T11:46:20;100223.19;;;13.48;42.86
64821;BME280;51256;55.654;37.264;2022-09-09T11:48:59;100223.91;;;13.40;43.12
64821;BME280;51256;55.654;37.264;2022-09-09T11:51:28;100218.28;;;13.34;43.22
64821;BME280;51256;55.654;37.264;2022-09-09T11:54:00;100215.47;;;13.35;43.33
64821;BME280;51256;55.654;37.264;2022-09-09T11:59:19;100220.13;;;13.23;43.87
64821;BME280;51256;55.654;37.264;2022-09-09T12:01:50;100203.41;;;13.31;43.59
64821;BME280;51256;55.654;37.264;2022-09-09T12:09:51;100200.09;;;13.67;43.35
64821;BME280;51256;55.654;37.264;2022-09-09T12:12:30;100208.47;;;13.82;42.89
64821;BME280;51256;55.654;37.264;2022-09-09T12:17:44;100216.81;;;13.69;40.93
64821;BME280;51256;55.654;37.264;2022-09-09T12:23:37;100204.97;;;13.04;42.50
64821;BME280;51256;55.654;37.264;2022-09-09T12:28:41;100216.34;;;13.06;42.63
64821;BME280;51256;55.654;37.264;2022-09-09T12:31:14;100216.06;;;13.09;42.74
64821;BME280;51256;55.654;37.264;2022-09-09T12:33:44;100215.13;;;12.91;43.28
64821;BME280;51256;55.654;37.264;2022-09-09T12:36:31;100220.69;;;12.88;43.52
64821;BME280;51256;55.654;37.264;2022-09-09T12:39:30;100215.09;;;12.71;43.72
64821;BME280;51256;55.654;37.264;2022-09-09T12:41:54;100223.50;;;12.67;44.02
64821;BME280;51256;55.654;37.264;2022-09-09T12:44:22;100219.31;;;12.74;43.87
64821;BME280;51256;55.654;37.264;2022-09-09T12:46:48;100217.63;;;12.82;43.90
64821;BME280;51256;55.654;37.264;2022-09-09T12:49:45;100212.28;;;12.82;43.98
64821;BME280;51256;55.654;37.264;2022-09-09T12:52:28;100214.69;;;12.76;44.33
64821;BME280;51256;55.654;37.264;2022-09-09T12:54:56;100221.69;;;12.67;44.40
64821;BME280;51256;55.654;37.264;2022-09-09T12:57:23;100210.31;;;12.65;44.27
64821;BME280;51256;55.654;37.264;2022-09-09T12:59:52;100216.94;;;12.71;44.34
64821;BME280;51256;55.654;37.264;2022-09-09T13:02:29;100215.25;;;12.79;44.22
64821;BME280;51256;55.654;37.264;2022-09-09T13:05:06;100204.72;;;12.88;43.53
64821;BME280;51256;55.654;37.264;2022-09-09T13:07:32;100212.56;;;12.99;43.31
64821;BME280;51256;55.654;37.264;2022-09-09T13:09:57;100202.72;;;13.19;42.85
64821;BME280;51256;55.654;37.264;2022-09-09T13:12:23;100212.97;;;13.14;42.77
64821;BME280;51256;55.654;37.264;2022-09-09T13:14:52;100204.16;;;13.04;43.05
64821;BME280;51256;55.654;37.264;2022-09-09T13:17:24;100224.34;;;12.87;43.69
64821;BME280;51256;55.654;37.264;2022-09-09T13:19:51;100213.69;;;12.57;44.43
64821;BME280;51256;55.654;37.264;2022-09-09T13:25:20;100207.19;;;12.30;44.88
64821;BME280;51256;55.654;37.264;2022-09-09T13:27:59;100211.00;;;12.38;44.73
64821;BME280;51256;55.654;37.264;2022-09-09T13:30:32;100222.34;;;12.40;44.91
64821;BME280;51256;55.654;37.264;2022-09-09T13:35:58;100204.13;;;12.45;44.68
64821;BME280;51256;55.654;37.264;2022-09-09T13:38:24;100214.97;;;12.53;44.66
64821;BME280;51256;55.654;37.264;2022-09-09T13:40:57;100207.38;;;12.68;44.34
64821;BME280;51256;55.654;37.264;2022-09-09T13:43:25;100214.53;;;12.77;44.33
64821;BME280;51256;55.654;37.264;2022-09-09T13:45:59;100217.75;;;12.71;44.09
64821;BME280;51256;55.654;37.264;2022-09-09T13:48:25;100215.38;;;12.48;43.59
64821;BME280;51256;55.654;37.264;2022-09-09T13:50:59;100216.59;;;12.35;43.80
64821;BME280;51256;55.654;37.264;2022-09-09T13:53:26;100211.09;;;12.26;44.00
64821;BME280;51256;55.654;37.264;2022-09-09T13:55:52;100210.25;;;12.16;44.23
64821;BME280;51256;55.654;37.264;2022-09-09T13:58:18;100211.97;;;12.37;44.26
64821;BME280;51256;55.654;37.264;2022-09-09T14:00:45;100210.19;;;12.76;43.54
64821;BME280;51256;55.654;37.264;2022-09-09T14:03:11;100204.41;;;13.10;43.21
64821;BME280;51256;55.654;37.264;2022-09-09T14:05:36;100199.88;;;13.30;42.57
64821;BME280;51256;55.654;37.264;2022-09-09T14:08:07;100213.44;;;15.04;40.22
64821;BME280;51256;55.654;37.264;2022-09-09T14:10:34;100197.97;;;17.93;35.78
64821;BME280;51256;55.654;37.264;2022-09-09T14:13:02;100202.09;;;20.48;31.89
64821;BME280;51256;55.654;37.264;2022-09-09T14:15:28;100183.53;;;22.64;29.12
64821;BME280;51256;55.654;37.264;2022-09-09T14:17:54;100184.53;;;24.22;27.15
64821;BME280;51256;55.654;37.264;2022-09-09T14:20:20;100195.88;;;24.12;26.03
64821;BME280;51256;55.654;37.264;2022-09-09T14:22:46;100193.06;;;24.71;25.87
64821;BME280;51256;55.654;37.264;2022-09-09T14:25:12;100188.59;;;25.09;25.18
64821;BME280;51256;55.654;37.264;2022-09-09T14:27:41;100188.84;;;24.37;24.50
64821;BME280;51256;55.654;37.264;2022-09-09T14:30:08;100188.69;;;23.66;25.63
64821;BME280;51256;55.654;37.264;2022-09-09T14:32:34;100183.34;;;23.12;25.54
64821;BME280;51256;55.654;37.264;2022-09-09T14:35:00;100177.69;;;23.07;26.35
64821;BME280;51256;55.654;37.264;2022-09-09T14:37:27;100184.59;;;23.37;26.54
64821;BME280;51256;55.654;37.264;2022-09-09T14:39:52;100180.41;;;23.41;26.30
64821;BME280;51256;55.654;37.264;2022-09-09T14:42:19;100182.31;;;24.06;26.05
64821;BME280;51256;55.654;37.264;2022-09-09T14:44:44;100174.19;;;24.44;25.72
64821;BME280;51256;55.654;37.264;2022-09-09T14:47:10;100184.34;;;24.56;25.66
64821;BME280;51256;55.654;37.264;2022-09-09T14:49:36;100175.81;;;24.13;25.42
64821;BME280;51256;55.654;37.264;2022-09-09T14:52:05;100193.78;;;23.29;26.22
64821;BME280;51256;55.654;37.264;2022-09-09T14:54:31;100177.63;;;22.33;27.00
64821;BME280;51256;55.654;37.264;2022-09-09T14:56:58;100189.50;;;21.91;27.56
64821;BME280;51256;55.654;37.264;2022-09-09T14:59:23;100189.28;;;21.50;27.67
64821;BME280;51256;55.654;37.264;2022-09-09T15:01:49;100189.81;;;21.11;28.48
64821;BME280;51256;55.654;37.264;2022-09-09T15:04:14;100193.41;;;21.18;28.35
64821;BME280;51256;55.654;37.264;2022-09-09T15:06:42;100184.66;;;21.44;27.99
64821;BME280;51256;55.654;37.264;2022-09-09T15:09:10;100185.56;;;21.93;27.49
64821;BME280;51256;55.654;37.264;2022-09-09T15:11:37;100180.16;;;21.23;27.98
64821;BME280;51256;55.654;37.264;2022-09-09T15:14:04;100179.56;;;20.56;29.02
64821;BME280;51256;55.654;37.264;2022-09-09T15:16:30;100181.00;;;20.73;28.96